sensor_id;sensor_type;location;lat;lon;timestamp;P1;durP1;ratioP1;P2;durP2;ratioP2
840;SDS011;406;48.566;13.450;2023-04-24T00:01:05;2.03;;;1.03;;
840;SDS011;406;48.566;13.450;2023-04-24T00:03:33;1.93;;;1.40;;
840;SDS011;406;48.566;13.450;2023-04-24T00:06:01;2.37;;;1.30;;
840;SDS011;406;48.566;13.450;2023-04-24T00:08:28;3.00;;;2.10;;
840;SDS011;406;48.566;13.450;2023-04-24T00:10:55;3.80;;;1.93;;
840;SDS011;406;48.566;13.450;2023-04-24T00:13:21;3.00;;;1.33;;
840;SDS011;406;48.566;13.450;2023-04-24T00:15:48;1.23;;;1.10;;
840;SDS011;406;48.566;13.450;2023-04-24T00:18:14;3.10;;;1.40;;
840;SDS011;406;48.566;13.450;2023-04-24T00:20:41;1.40;;;1.00;;
840;SDS011;406;48.566;13.450;2023-04-24T00:23:09;3.00;;;1.30;;
840;SDS011;406;48.566;13.450;2023-04-24T00:25:36;2.80;;;1.50;;
840;SDS011;406;48.566;13.450;2023-04-24T00:28:02;1.80;;;1.30;;
840;SDS011;406;48.566;13.450;2023-04-24T00:30:29;2.17;;;1.23;;
840;SDS011;406;48.566;13.450;2023-04-24T00:32:55;1.63;;;1.37;;
840;SDS011;406;48.566;13.450;2023-04-24T00:35:22;2.43;;;1.17;;
840;SDS011;406;48.566;13.450;2023-04-24T00:37:49;2.57;;;1.50;;
840;SDS011;406;48.566;13.450;2023-04-24T00:40:16;1.60;;;1.20;;
840;SDS011;406;48.566;13.450;2023-04-24T00:42:43;3.27;;;1.10;;
840;SDS011;406;48.566;13.450;2023-04-24T00:45:10;1.27;;;1.07;;
840;SDS011;406;48.566;13.450;2023-04-24T00:47:36;3.23;;;1.83;;
840;SDS011;406;48.566;13.450;2023-04-24T00:50:04;1.80;;;1.50;;
840;SDS011;406;48.566;13.450;2023-04-24T00:52:31;1.40;;;1.30;;
840;SDS011;406;48.566;13.450;2023-04-24T00:54:58;2.40;;;1.57;;
840;SDS011;406;48.566;13.450;2023-04-24T00:57:26;2.07;;;1.57;;
840;SDS011;406;48.566;13.450;2023-04-24T00:59:52;3.00;;;1.77;;
840;SDS011;406;48.566;13.450;2023-04-24T01:02:19;2.00;;;1.70;;
840;SDS011;406;48.566;13.450;2023-04-24T01:04:48;3.43;;;2.00;;
840;SDS011;406;48.566;13.450;2023-04-24T01:07:16;2.17;;;1.50;;
840;SDS011;406;48.566;13.450;2023-04-24T01:09:47;2.83;;;1.60;;
840;SDS011;406;48.566;13.450;2023-04-24T01:12:15;4.77;;;1.77;;
840;SDS011;406;48.566;13.450;2023-04-24T01:14:43;4.13;;;1.33;;
840;SDS011;406;48.566;13.450;2023-04-24T01:17:10;5.17;;;1.90;;
840;SDS011;406;48.566;13.450;2023-04-24T01:19:37;2.63;;;1.50;;
840;SDS011;406;48.566;13.450;2023-04-24T01:22:08;3.43;;;1.97;;
840;SDS011;406;48.566;13.450;2023-04-24T01:24:37;2.27;;;1.90;;
840;SDS011;406;48.566;13.450;2023-04-24T01:27:04;2.63;;;1.40;;
840;SDS011;406;48.566;13.450;2023-04-24T01:29:31;2.40;;;1.33;;
840;SDS011;406;48.566;13.450;2023-04-24T01:31:57;2.40;;;1.60;;
840;SDS011;406;48.566;13.450;2023-04-24T01:34:25;2.60;;;1.63;;
840;SDS011;406;48.566;13.450;2023-04-24T01:36:52;2.47;;;1.53;;
840;SDS011;406;48.566;13.450;2023-04-24T01:39:18;2.87;;;1.60;;
840;SDS011;406;48.566;13.450;2023-04-24T01:41:46;2.30;;;1.70;;
840;SDS011;406;48.566;13.450;2023-04-24T01:44:13;2.63;;;1.60;;
840;SDS011;406;48.566;13.450;2023-04-24T01:46:40;2.27;;;1.50;;
840;SDS011;406;48.566;13.450;2023-04-24T01:49:07;2.07;;;1.63;;
840;SDS011;406;48.566;13.450;2023-04-24T01:51:33;4.20;;;1.43;;
840;SDS011;406;48.566;13.450;2023-04-24T01:53:59;2.53;;;1.10;;
840;SDS011;406;48.566;13.450;2023-04-24T01:56:30;2.80;;;1.83;;
840;SDS011;406;48.566;13.450;2023-04-24T01:58:59;3.73;;;2.03;;
840;SDS011;406;48.566;13.450;2023-04-24T02:01:27;3.00;;;2.13;;
840;SDS011;406;48.566;13.450;2023-04-24T02:03:53;1.87;;;1.53;;
840;SDS011;406;48.566;13.450;2023-04-24T02:06:20;2.50;;;1.80;;
840;SDS011;406;48.566;13.450;2023-04-24T02:08:46;3.07;;;2.00;;
840;SDS011;406;48.566;13.450;2023-04-24T02:11:13;3.10;;;1.77;;
840;SDS011;406;48.566;13.450;2023-04-24T02:13:39;4.43;;;2.00;;
840;SDS011;406;48.566;13.450;2023-04-24T02:16:06;2.03;;;1.83;;
840;SDS011;406;48.566;13.450;2023-04-24T02:18:32;2.33;;;1.67;;
840;SDS011;406;48.566;13.450;2023-04-24T02:20:59;3.40;;;1.87;;
840;SDS011;406;48.566;13.450;2023-04-24T02:23:25;2.10;;;1.60;;
840;SDS011;406;48.566;13.450;2023-04-24T02:25:53;3.73;;;2.20;;
840;SDS011;406;48.566;13.450;2023-04-24T02:28:19;3.70;;;1.57;;
840;SDS011;406;48.566;13.450;2023-04-24T02:30:46;7.33;;;1.63;;
840;SDS011;406;48.566;13.450;2023-04-24T02:33:12;1.80;;;1.40;;
840;SDS011;406;48.566;13.450;2023-04-24T02:35:39;2.73;;;2.10;;
840;SDS011;406;48.566;13.450;2023-04-24T02:38:06;2.93;;;2.17;;
840;SDS011;406;48.566;13.450;2023-04-24T02:40:32;3.10;;;2.30;;
840;SDS011;406;48.566;13.450;2023-04-24T02:42:59;2.87;;;2.10;;
840;SDS011;406;48.566;13.450;2023-04-24T02:45:25;3.00;;;2.43;;
840;SDS011;406;48.566;13.450;2023-04-24T02:47:52;3.50;;;1.80;;
840;SDS011;406;48.566;13.450;2023-04-24T02:50:19;2.20;;;2.00;;
840;SDS011;406;48.566;13.450;2023-04-24T02:52:45;4.90;;;2.23;;
840;SDS011;406;48.566;13.450;2023-04-24T02:55:12;4.80;;;2.23;;
840;SDS011;406;48.566;13.450;2023-04-24T02:57:38;2.50;;;2.00;;
840;SDS011;406;48.566;13.450;2023-04-24T03:00:05;2.17;;;1.83;;
840;SDS011;406;48.566;13.450;2023-04-24T03:02:33;10.63;;;2.37;;
840;SDS011;406;48.566;13.450;2023-04-24T03:05:00;3.50;;;2.10;;
840;SDS011;406;48.566;13.450;2023-04-24T03:07:28;3.87;;;2.33;;
840;SDS011;406;48.566;13.450;2023-04-24T03:09:55;3.37;;;2.30;;
840;SDS011;406;48.566;13.450;2023-04-24T03:12:24;3.07;;;2.03;;
840;SDS011;406;48.566;13.450;2023-04-24T03:14:50;2.53;;;2.23;;
840;SDS011;406;48.566;13.450;2023-04-24T03:17:18;3.50;;;2.67;;
840;SDS011;406;48.566;13.450;2023-04-24T03:19:44;4.17;;;2.17;;
840;SDS011;406;48.566;13.450;2023-04-24T03:22:11;2.50;;;2.20;;
840;SDS011;406;48.566;13.450;2023-04-24T03:24:39;2.70;;;2.30;;
840;SDS011;406;48.566;13.450;2023-04-24T03:27:06;5.87;;;2.23;;
840;SDS011;406;48.566;13.450;2023-04-24T03:30:08;3.13;;;2.83;;
840;SDS011;406;48.566;13.450;2023-04-24T03:32:46;3.90;;;2.50;;
840;SDS011;406;48.566;13.450;2023-04-24T03:35:18;3.80;;;2.13;;
840;SDS011;406;48.566;13.450;2023-04-24T03:37:45;3.10;;;2.30;;
840;SDS011;406;48.566;13.450;2023-04-24T03:40:34;3.23;;;2.30;;
840;SDS011;406;48.566;13.450;2023-04-24T03:43:02;2.73;;;1.87;;
840;SDS011;406;48.566;13.450;2023-04-24T03:45:29;3.23;;;2.43;;
840;SDS011;406;48.566;13.450;2023-04-24T03:47:56;2.67;;;2.47;;
840;SDS011;406;48.566;13.450;2023-04-24T03:50:23;3.43;;;2.00;;
840;SDS011;406;48.566;13.450;2023-04-24T03:52:50;3.10;;;2.80;;
840;SDS011;406;48.566;13.450;2023-04-24T03:55:28;4.13;;;2.77;;
840;SDS011;406;48.566;13.450;2023-04-24T03:57:56;4.80;;;2.10;;
840;SDS011;406;48.566;13.450;2023-04-24T04:00:22;3.43;;;2.40;;
840;SDS011;406;48.566;13.450;2023-04-24T04:03:01;3.10;;;2.10;;
840;SDS011;406;48.566;13.450;2023-04-24T04:05:29;4.10;;;2.80;;
840;SDS011;406;48.566;13.450;2023-04-24T04:07:57;3.77;;;2.30;;
840;SDS011;406;48.566;13.450;2023-04-24T04:10:24;3.03;;;2.10;;
840;SDS011;406;48.566;13.450;2023-04-24T04:12:51;2.50;;;2.10;;
840;SDS011;406;48.566;13.450;2023-04-24T04:15:17;3.90;;;2.33;;
840;SDS011;406;48.566;13.450;2023-04-24T04:17:44;4.50;;;2.20;;
840;SDS011;406;48.566;13.450;2023-04-24T04:20:12;4.80;;;2.20;;
840;SDS011;406;48.566;13.450;2023-04-24T04:22:40;2.20;;;1.80;;
840;SDS011;406;48.566;13.450;2023-04-24T04:25:12;3.37;;;2.50;;
840;SDS011;406;48.566;13.450;2023-04-24T04:27:40;4.57;;;1.67;;
840;SDS011;406;48.566;13.450;2023-04-24T04:30:10;4.80;;;2.77;;
840;SDS011;406;48.566;13.450;2023-04-24T04:32:45;3.80;;;2.53;;
840;SDS011;406;48.566;13.450;2023-04-24T04:35:12;3.37;;;2.20;;
840;SDS011;406;48.566;13.450;2023-04-24T04:37:39;5.33;;;2.60;;
840;SDS011;406;48.566;13.450;2023-04-24T04:40:25;2.87;;;2.23;;
840;SDS011;406;48.566;13.450;2023-04-24T04:42:57;2.67;;;1.70;;
840;SDS011;406;48.566;13.450;2023-04-24T04:45:26;2.67;;;1.90;;
840;SDS011;406;48.566;13.450;2023-04-24T04:48:13;3.47;;;2.23;;
840;SDS011;406;48.566;13.450;2023-04-24T04:50:40;2.50;;;1.93;;
840;SDS011;406;48.566;13.450;2023-04-24T04:53:07;3.07;;;1.97;;
840;SDS011;406;48.566;13.450;2023-04-24T04:55:37;2.40;;;1.80;;
840;SDS011;406;48.566;13.450;2023-04-24T04:58:08;2.57;;;1.87;;
840;SDS011;406;48.566;13.450;2023-04-24T05:00:35;3.33;;;2.10;;
840;SDS011;406;48.566;13.450;2023-04-24T05:03:12;2.30;;;2.03;;
840;SDS011;406;48.566;13.450;2023-04-24T05:05:44;4.13;;;2.67;;
840;SDS011;406;48.566;13.450;2023-04-24T05:08:13;3.13;;;1.87;;
840;SDS011;406;48.566;13.450;2023-04-24T05:10:52;2.90;;;1.60;;
840;SDS011;406;48.566;13.450;2023-04-24T05:13:18;2.50;;;1.73;;
840;SDS011;406;48.566;13.450;2023-04-24T05:16:02;1.70;;;1.60;;
840;SDS011;406;48.566;13.450;2023-04-24T05:18:29;2.13;;;1.77;;
840;SDS011;406;48.566;13.450;2023-04-24T05:20:56;1.87;;;1.40;;
840;SDS011;406;48.566;13.450;2023-04-24T05:23:23;2.37;;;1.63;;
840;SDS011;406;48.566;13.450;2023-04-24T05:25:52;1.70;;;1.60;;
840;SDS011;406;48.566;13.450;2023-04-24T05:28:19;2.70;;;1.70;;
840;SDS011;406;48.566;13.450;2023-04-24T05:30:58;2.30;;;1.30;;
840;SDS011;406;48.566;13.450;2023-04-24T05:33:26;3.90;;;1.30;;
840;SDS011;406;48.566;13.450;2023-04-24T05:35:52;1.90;;;1.40;;
840;SDS011;406;48.566;13.450;2023-04-24T05:38:21;1.60;;;1.30;;
840;SDS011;406;48.566;13.450;2023-04-24T05:40:48;2.00;;;1.20;;
840;SDS011;406;48.566;13.450;2023-04-24T05:43:14;2.37;;;1.40;;
840;SDS011;406;48.566;13.450;2023-04-24T05:45:41;2.23;;;1.47;;
840;SDS011;406;48.566;13.450;2023-04-24T05:48:08;1.53;;;1.30;;
840;SDS011;406;48.566;13.450;2023-04-24T05:50:34;10.30;;;1.70;;
840;SDS011;406;48.566;13.450;2023-04-24T05:53:02;1.60;;;1.10;;
840;SDS011;406;48.566;13.450;2023-04-24T05:55:33;1.87;;;1.33;;
840;SDS011;406;48.566;13.450;2023-04-24T05:58:00;1.93;;;1.20;;
840;SDS011;406;48.566;13.450;2023-04-24T06:00:26;2.27;;;1.17;;
840;SDS011;406;48.566;13.450;2023-04-24T06:03:00;2.33;;;1.27;;
840;SDS011;406;48.566;13.450;2023-04-24T06:05:27;1.00;;;0.73;;
840;SDS011;406;48.566;13.450;2023-04-24T06:07:53;1.83;;;1.37;;
840;SDS011;406;48.566;13.450;2023-04-24T06:10:22;2.17;;;1.80;;
840;SDS011;406;48.566;13.450;2023-04-24T06:12:49;1.50;;;1.10;;
840;SDS011;406;48.566;13.450;2023-04-24T06:15:16;3.37;;;1.07;;
840;SDS011;406;48.566;13.450;2023-04-24T06:17:52;1.30;;;1.20;;
840;SDS011;406;48.566;13.450;2023-04-24T06:20:19;5.10;;;1.20;;
840;SDS011;406;48.566;13.450;2023-04-24T06:22:46;1.60;;;1.50;;
840;SDS011;406;48.566;13.450;2023-04-24T06:25:12;1.70;;;1.00;;
840;SDS011;406;48.566;13.450;2023-04-24T06:27:39;1.57;;;1.40;;
840;SDS011;406;48.566;13.450;2023-04-24T06:30:07;1.70;;;0.87;;
840;SDS011;406;48.566;13.450;2023-04-24T06:32:34;1.90;;;1.03;;
840;SDS011;406;48.566;13.450;2023-04-24T06:35:00;1.57;;;1.00;;
840;SDS011;406;48.566;13.450;2023-04-24T06:37:27;1.40;;;1.30;;
840;SDS011;406;48.566;13.450;2023-04-24T06:39:53;1.83;;;1.17;;
840;SDS011;406;48.566;13.450;2023-04-24T06:42:20;1.40;;;1.10;;
840;SDS011;406;48.566;13.450;2023-04-24T06:44:48;2.17;;;1.10;;
840;SDS011;406;48.566;13.450;2023-04-24T06:47:15;1.67;;;1.30;;
840;SDS011;406;48.566;13.450;2023-04-24T06:49:41;1.83;;;1.30;;
840;SDS011;406;48.566;13.450;2023-04-24T06:52:08;1.67;;;1.10;;
840;SDS011;406;48.566;13.450;2023-04-24T06:54:35;1.87;;;1.33;;
840;SDS011;406;48.566;13.450;2023-04-24T06:57:02;1.87;;;0.90;;
840;SDS011;406;48.566;13.450;2023-04-24T06:59:29;2.00;;;1.47;;
840;SDS011;406;48.566;13.450;2023-04-24T07:01:56;2.47;;;1.17;;
840;SDS011;406;48.566;13.450;2023-04-24T07:04:23;2.50;;;1.20;;
840;SDS011;406;48.566;13.450;2023-04-24T07:06:53;2.03;;;1.00;;
840;SDS011;406;48.566;13.450;2023-04-24T07:09:24;2.47;;;1.47;;
840;SDS011;406;48.566;13.450;2023-04-24T07:11:51;2.10;;;1.50;;
840;SDS011;406;48.566;13.450;2023-04-24T07:14:19;2.03;;;1.10;;
840;SDS011;406;48.566;13.450;2023-04-24T07:16:46;3.30;;;1.30;;
840;SDS011;406;48.566;13.450;2023-04-24T07:19:13;1.40;;;1.03;;
840;SDS011;406;48.566;13.450;2023-04-24T07:21:40;16.13;;;1.97;;
840;SDS011;406;48.566;13.450;2023-04-24T07:24:06;1.90;;;1.20;;
840;SDS011;406;48.566;13.450;2023-04-24T07:26:36;1.43;;;1.00;;
840;SDS011;406;48.566;13.450;2023-04-24T07:29:04;2.10;;;0.83;;
840;SDS011;406;48.566;13.450;2023-04-24T07:31:31;2.80;;;2.07;;
840;SDS011;406;48.566;13.450;2023-04-24T07:33:57;1.57;;;1.00;;
840;SDS011;406;48.566;13.450;2023-04-24T07:36:24;2.97;;;1.23;;
840;SDS011;406;48.566;13.450;2023-04-24T07:38:52;2.30;;;1.60;;
840;SDS011;406;48.566;13.450;2023-04-24T07:41:19;1.57;;;1.10;;
840;SDS011;406;48.566;13.450;2023-04-24T07:43:46;2.27;;;1.40;;
840;SDS011;406;48.566;13.450;2023-04-24T07:46:13;2.83;;;1.70;;
840;SDS011;406;48.566;13.450;2023-04-24T07:48:40;1.97;;;1.70;;
840;SDS011;406;48.566;13.450;2023-04-24T07:51:06;1.53;;;1.20;;
840;SDS011;406;48.566;13.450;2023-04-24T07:53:33;2.50;;;1.40;;
840;SDS011;406;48.566;13.450;2023-04-24T07:55:59;1.67;;;0.93;;
840;SDS011;406;48.566;13.450;2023-04-24T07:58:26;1.50;;;1.20;;
840;SDS011;406;48.566;13.450;2023-04-24T08:00:52;1.03;;;0.90;;
840;SDS011;406;48.566;13.450;2023-04-24T08:03:19;2.27;;;1.10;;
840;SDS011;406;48.566;13.450;2023-04-24T08:05:46;1.53;;;1.43;;
840;SDS011;406;48.566;13.450;2023-04-24T08:08:13;1.90;;;1.07;;
840;SDS011;406;48.566;13.450;2023-04-24T08:10:39;1.30;;;0.90;;
840;SDS011;406;48.566;13.450;2023-04-24T08:13:06;1.40;;;1.10;;
840;SDS011;406;48.566;13.450;2023-04-24T08:15:33;1.90;;;0.90;;
840;SDS011;406;48.566;13.450;2023-04-24T08:17:59;2.00;;;1.07;;
840;SDS011;406;48.566;13.450;2023-04-24T08:20:26;4.30;;;1.07;;
840;SDS011;406;48.566;13.450;2023-04-24T08:22:52;1.17;;;1.03;;
840;SDS011;406;48.566;13.450;2023-04-24T08:25:20;1.50;;;1.10;;
840;SDS011;406;48.566;13.450;2023-04-24T08:27:49;2.30;;;1.67;;
840;SDS011;406;48.566;13.450;2023-04-24T08:30:15;2.90;;;0.80;;
840;SDS011;406;48.566;13.450;2023-04-24T08:32:42;1.57;;;1.07;;
840;SDS011;406;48.566;13.450;2023-04-24T08:35:08;1.70;;;0.90;;
840;SDS011;406;48.566;13.450;2023-04-24T08:37:36;1.30;;;1.10;;
840;SDS011;406;48.566;13.450;2023-04-24T08:40:06;1.77;;;1.13;;
840;SDS011;406;48.566;13.450;2023-04-24T08:42:39;1.40;;;0.93;;
840;SDS011;406;48.566;13.450;2023-04-24T08:45:06;1.83;;;0.93;;
840;SDS011;406;48.566;13.450;2023-04-24T08:47:33;1.10;;;0.80;;
840;SDS011;406;48.566;13.450;2023-04-24T08:50:02;1.77;;;0.67;;
840;SDS011;406;48.566;13.450;2023-04-24T08:52:29;1.23;;;0.80;;
840;SDS011;406;48.566;13.450;2023-04-24T08:54:56;1.60;;;0.77;;
840;SDS011;406;48.566;13.450;2023-04-24T08:57:22;2.00;;;1.10;;
840;SDS011;406;48.566;13.450;2023-04-24T08:59:49;1.70;;;1.00;;
840;SDS011;406;48.566;13.450;2023-04-24T09:02:16;1.17;;;0.93;;
840;SDS011;406;48.566;13.450;2023-04-24T09:04:42;1.90;;;1.10;;
840;SDS011;406;48.566;13.450;2023-04-24T09:07:10;3.20;;;0.70;;
840;SDS011;406;48.566;13.450;2023-04-24T09:09:38;2.87;;;1.60;;
840;SDS011;406;48.566;13.450;2023-04-24T09:12:04;2.40;;;1.30;;
840;SDS011;406;48.566;13.450;2023-04-24T09:14:31;1.97;;;0.80;;
840;SDS011;406;48.566;13.450;2023-04-24T09:16:58;4.10;;;1.33;;
840;SDS011;406;48.566;13.450;2023-04-24T09:19:24;1.20;;;0.80;;
840;SDS011;406;48.566;13.450;2023-04-24T09:21:51;1.30;;;0.83;;
840;SDS011;406;48.566;13.450;2023-04-24T09:24:19;0.83;;;0.50;;
840;SDS011;406;48.566;13.450;2023-04-24T09:26:49;1.33;;;0.97;;
840;SDS011;406;48.566;13.450;2023-04-24T09:29:24;2.10;;;1.00;;
840;SDS011;406;48.566;13.450;2023-04-24T09:31:50;2.17;;;0.80;;
840;SDS011;406;48.566;13.450;2023-04-24T09:34:24;2.10;;;1.10;;
840;SDS011;406;48.566;13.450;2023-04-24T09:36:52;2.03;;;1.00;;
840;SDS011;406;48.566;13.450;2023-04-24T09:39:19;4.83;;;1.70;;
840;SDS011;406;48.566;13.450;2023-04-24T09:41:49;2.73;;;1.50;;
840;SDS011;406;48.566;13.450;2023-04-24T09:44:18;1.73;;;1.00;;
840;SDS011;406;48.566;13.450;2023-04-24T09:46:53;2.27;;;1.13;;
840;SDS011;406;48.566;13.450;2023-04-24T09:49:27;1.40;;;0.83;;
840;SDS011;406;48.566;13.450;2023-04-24T09:54:35;2.90;;;1.03;;
840;SDS011;406;48.566;13.450;2023-04-24T09:57:03;2.33;;;0.87;;
840;SDS011;406;48.566;13.450;2023-04-24T09:59:30;1.80;;;0.90;;
840;SDS011;406;48.566;13.450;2023-04-24T10:01:56;0.90;;;0.73;;
840;SDS011;406;48.566;13.450;2023-04-24T10:04:26;2.00;;;0.80;;
840;SDS011;406;48.566;13.450;2023-04-24T10:06:55;1.70;;;1.07;;
840;SDS011;406;48.566;13.450;2023-04-24T10:09:23;2.03;;;0.97;;
840;SDS011;406;48.566;13.450;2023-04-24T10:11:52;2.30;;;1.10;;
840;SDS011;406;48.566;13.450;2023-04-24T10:14:23;2.00;;;0.93;;
840;SDS011;406;48.566;13.450;2023-04-24T10:16:52;3.40;;;1.10;;
840;SDS011;406;48.566;13.450;2023-04-24T10:19:20;3.33;;;1.40;;
840;SDS011;406;48.566;13.450;2023-04-24T10:21:47;2.77;;;1.00;;
840;SDS011;406;48.566;13.450;2023-04-24T10:24:14;1.20;;;0.60;;
840;SDS011;406;48.566;13.450;2023-04-24T10:26:42;0.90;;;0.60;;
840;SDS011;406;48.566;13.450;2023-04-24T10:29:13;2.70;;;0.60;;
840;SDS011;406;48.566;13.450;2023-04-24T10:31:41;1.73;;;0.80;;
840;SDS011;406;48.566;13.450;2023-04-24T10:34:09;2.00;;;0.87;;
840;SDS011;406;48.566;13.450;2023-04-24T10:36:36;3.20;;;0.80;;
840;SDS011;406;48.566;13.450;2023-04-24T10:39:06;1.37;;;0.67;;
840;SDS011;406;48.566;13.450;2023-04-24T10:41:36;1.00;;;0.77;;
840;SDS011;406;48.566;13.450;2023-04-24T10:44:04;1.63;;;0.87;;
840;SDS011;406;48.566;13.450;2023-04-24T10:46:31;2.03;;;0.90;;
840;SDS011;406;48.566;13.450;2023-04-24T10:48:58;1.10;;;1.00;;
840;SDS011;406;48.566;13.450;2023-04-24T10:51:42;1.50;;;1.10;;
840;SDS011;406;48.566;13.450;2023-04-24T10:54:22;2.50;;;0.90;;
840;SDS011;406;48.566;13.450;2023-04-24T10:59:52;4.53;;;1.17;;
840;SDS011;406;48.566;13.450;2023-04-24T11:02:47;1.90;;;0.80;;
840;SDS011;406;48.566;13.450;2023-04-24T11:05:16;2.90;;;1.23;;
840;SDS011;406;48.566;13.450;2023-04-24T11:10:56;0.87;;;0.50;;
840;SDS011;406;48.566;13.450;2023-04-24T11:16:20;1.33;;;0.67;;
840;SDS011;406;48.566;13.450;2023-04-24T11:18:52;2.17;;;0.50;;
840;SDS011;406;48.566;13.450;2023-04-24T11:21:30;1.20;;;0.80;;
840;SDS011;406;48.566;13.450;2023-04-24T11:27:20;1.23;;;0.60;;
840;SDS011;406;48.566;13.450;2023-04-24T11:37:36;1.33;;;0.90;;
840;SDS011;406;48.566;13.450;2023-04-24T11:40:04;1.20;;;0.70;;
840;SDS011;406;48.566;13.450;2023-04-24T11:42:39;2.53;;;1.23;;
840;SDS011;406;48.566;13.450;2023-04-24T11:45:07;1.63;;;0.93;;
840;SDS011;406;48.566;13.450;2023-04-24T11:47:35;1.53;;;1.00;;
840;SDS011;406;48.566;13.450;2023-04-24T11:50:02;2.73;;;1.03;;
840;SDS011;406;48.566;13.450;2023-04-24T11:52:30;1.40;;;1.10;;
840;SDS011;406;48.566;13.450;2023-04-24T11:54:57;1.93;;;0.90;;
840;SDS011;406;48.566;13.450;2023-04-24T11:57:24;2.37;;;1.30;;
840;SDS011;406;48.566;13.450;2023-04-24T11:59:53;1.53;;;1.00;;
840;SDS011;406;48.566;13.450;2023-04-24T12:02:24;1.50;;;1.00;;
840;SDS011;406;48.566;13.450;2023-04-24T12:04:52;3.40;;;1.13;;
840;SDS011;406;48.566;13.450;2023-04-24T12:07:21;6.13;;;1.60;;
840;SDS011;406;48.566;13.450;2023-04-24T12:09:54;1.20;;;1.10;;
840;SDS011;406;48.566;13.450;2023-04-24T12:12:23;1.63;;;1.03;;
840;SDS011;406;48.566;13.450;2023-04-24T12:14:55;2.60;;;1.63;;
840;SDS011;406;48.566;13.450;2023-04-24T12:17:24;1.40;;;0.90;;
840;SDS011;406;48.566;13.450;2023-04-24T12:20:04;2.23;;;1.30;;
840;SDS011;406;48.566;13.450;2023-04-24T12:22:45;2.63;;;1.80;;
840;SDS011;406;48.566;13.450;2023-04-24T12:25:21;2.40;;;1.20;;
840;SDS011;406;48.566;13.450;2023-04-24T12:27:55;1.83;;;1.40;;
840;SDS011;406;48.566;13.450;2023-04-24T12:30:41;3.10;;;1.50;;
840;SDS011;406;48.566;13.450;2023-04-24T12:33:11;1.60;;;1.10;;
840;SDS011;406;48.566;13.450;2023-04-24T12:35:39;2.83;;;1.33;;
840;SDS011;406;48.566;13.450;2023-04-24T12:38:09;1.97;;;1.33;;
840;SDS011;406;48.566;13.450;2023-04-24T12:40:37;1.70;;;1.03;;
840;SDS011;406;48.566;13.450;2023-04-24T12:45:45;1.67;;;1.20;;
840;SDS011;406;48.566;13.450;2023-04-24T12:48:11;1.73;;;1.30;;
840;SDS011;406;48.566;13.450;2023-04-24T12:50:40;1.90;;;1.30;;
840;SDS011;406;48.566;13.450;2023-04-24T12:53:11;2.20;;;1.43;;
840;SDS011;406;48.566;13.450;2023-04-24T12:55:38;1.57;;;1.23;;
840;SDS011;406;48.566;13.450;2023-04-24T12:58:04;1.73;;;1.20;;
840;SDS011;406;48.566;13.450;2023-04-24T13:00:31;1.47;;;1.37;;
840;SDS011;406;48.566;13.450;2023-04-24T13:02:58;2.67;;;1.27;;
840;SDS011;406;48.566;13.450;2023-04-24T13:05:26;1.30;;;1.10;;
840;SDS011;406;48.566;13.450;2023-04-24T13:07:52;1.50;;;1.20;;
840;SDS011;406;48.566;13.450;2023-04-24T13:10:19;2.97;;;1.63;;
840;SDS011;406;48.566;13.450;2023-04-24T13:12:45;1.27;;;1.00;;
840;SDS011;406;48.566;13.450;2023-04-24T13:15:12;2.40;;;1.30;;
840;SDS011;406;48.566;13.450;2023-04-24T13:17:39;2.63;;;1.60;;
840;SDS011;406;48.566;13.450;2023-04-24T13:20:06;1.93;;;1.57;;
840;SDS011;406;48.566;13.450;2023-04-24T13:22:33;1.60;;;1.50;;
840;SDS011;406;48.566;13.450;2023-04-24T13:25:00;2.00;;;1.13;;
840;SDS011;406;48.566;13.450;2023-04-24T13:27:27;3.50;;;1.30;;
840;SDS011;406;48.566;13.450;2023-04-24T13:29:54;2.20;;;1.57;;
840;SDS011;406;48.566;13.450;2023-04-24T13:32:21;2.60;;;1.00;;
840;SDS011;406;48.566;13.450;2023-04-24T13:34:47;2.60;;;0.80;;
840;SDS011;406;48.566;13.450;2023-04-24T13:37:14;1.93;;;0.87;;
840;SDS011;406;48.566;13.450;2023-04-24T13:39:40;1.20;;;0.70;;
840;SDS011;406;48.566;13.450;2023-04-24T13:42:10;1.43;;;0.80;;
840;SDS011;406;48.566;13.450;2023-04-24T13:44:37;1.20;;;0.90;;
840;SDS011;406;48.566;13.450;2023-04-24T13:47:03;3.23;;;1.20;;
840;SDS011;406;48.566;13.450;2023-04-24T13:49:30;1.47;;;1.07;;
840;SDS011;406;48.566;13.450;2023-04-24T13:51:56;1.10;;;0.70;;
840;SDS011;406;48.566;13.450;2023-04-24T13:54:23;1.70;;;0.90;;
840;SDS011;406;48.566;13.450;2023-04-24T13:56:52;1.77;;;0.80;;
840;SDS011;406;48.566;13.450;2023-04-24T13:59:19;1.60;;;0.83;;
840;SDS011;406;48.566;13.450;2023-04-24T14:01:46;1.90;;;0.83;;
840;SDS011;406;48.566;13.450;2023-04-24T14:04:14;1.40;;;0.80;;
840;SDS011;406;48.566;13.450;2023-04-24T14:06:41;1.80;;;0.70;;
840;SDS011;406;48.566;13.450;2023-04-24T14:09:07;1.97;;;0.80;;
840;SDS011;406;48.566;13.450;2023-04-24T14:11:34;1.37;;;0.87;;
840;SDS011;406;48.566;13.450;2023-04-24T14:14:01;1.23;;;0.90;;
840;SDS011;406;48.566;13.450;2023-04-24T14:16:28;1.20;;;0.70;;
840;SDS011;406;48.566;13.450;2023-04-24T14:18:54;1.53;;;1.17;;
840;SDS011;406;48.566;13.450;2023-04-24T14:21:21;1.27;;;0.80;;
840;SDS011;406;48.566;13.450;2023-04-24T14:23:47;1.07;;;0.63;;
840;SDS011;406;48.566;13.450;2023-04-24T14:26:14;2.23;;;1.30;;
840;SDS011;406;48.566;13.450;2023-04-24T14:28:40;5.70;;;1.10;;
840;SDS011;406;48.566;13.450;2023-04-24T14:31:07;2.20;;;1.60;;
840;SDS011;406;48.566;13.450;2023-04-24T14:33:34;1.50;;;1.00;;
840;SDS011;406;48.566;13.450;2023-04-24T14:36:01;2.07;;;0.87;;
840;SDS011;406;48.566;13.450;2023-04-24T14:38:29;1.10;;;0.80;;
840;SDS011;406;48.566;13.450;2023-04-24T14:40:56;1.30;;;0.83;;
840;SDS011;406;48.566;13.450;2023-04-24T14:43:33;1.27;;;1.10;;
840;SDS011;406;48.566;13.450;2023-04-24T14:46:01;1.77;;;1.17;;
840;SDS011;406;48.566;13.450;2023-04-24T14:48:29;1.90;;;1.40;;
840;SDS011;406;48.566;13.450;2023-04-24T14:50:56;2.50;;;2.13;;
840;SDS011;406;48.566;13.450;2023-04-24T14:53:22;1.87;;;1.10;;
840;SDS011;406;48.566;13.450;2023-04-24T14:55:49;1.53;;;0.97;;
840;SDS011;406;48.566;13.450;2023-04-24T14:58:15;1.50;;;0.97;;
840;SDS011;406;48.566;13.450;2023-04-24T15:00:42;1.20;;;1.10;;
840;SDS011;406;48.566;13.450;2023-04-24T15:03:08;2.27;;;1.20;;
840;SDS011;406;48.566;13.450;2023-04-24T15:05:35;0.90;;;0.70;;
840;SDS011;406;48.566;13.450;2023-04-24T15:08:03;1.83;;;0.90;;
840;SDS011;406;48.566;13.450;2023-04-24T15:10:29;1.20;;;1.00;;
840;SDS011;406;48.566;13.450;2023-04-24T15:12:56;1.57;;;1.03;;
840;SDS011;406;48.566;13.450;2023-04-24T15:15:22;1.70;;;1.07;;
840;SDS011;406;48.566;13.450;2023-04-24T15:17:49;1.43;;;1.20;;
840;SDS011;406;48.566;13.450;2023-04-24T15:20:16;1.40;;;0.90;;
840;SDS011;406;48.566;13.450;2023-04-24T15:22:42;1.60;;;1.10;;
840;SDS011;406;48.566;13.450;2023-04-24T15:25:09;1.70;;;1.40;;
840;SDS011;406;48.566;13.450;2023-04-24T15:27:39;1.37;;;1.13;;
840;SDS011;406;48.566;13.450;2023-04-24T15:30:07;1.87;;;1.27;;
840;SDS011;406;48.566;13.450;2023-04-24T15:32:35;1.50;;;1.10;;
840;SDS011;406;48.566;13.450;2023-04-24T15:35:02;2.17;;;1.03;;
840;SDS011;406;48.566;13.450;2023-04-24T15:37:34;1.10;;;1.00;;
840;SDS011;406;48.566;13.450;2023-04-24T15:40:01;2.97;;;1.13;;
840;SDS011;406;48.566;13.450;2023-04-24T15:42:30;1.60;;;1.17;;
840;SDS011;406;48.566;13.450;2023-04-24T15:44:56;1.80;;;1.10;;
840;SDS011;406;48.566;13.450;2023-04-24T15:47:23;1.30;;;1.10;;
840;SDS011;406;48.566;13.450;2023-04-24T15:49:51;1.90;;;1.43;;
840;SDS011;406;48.566;13.450;2023-04-24T15:52:18;2.63;;;1.30;;
840;SDS011;406;48.566;13.450;2023-04-24T15:54:44;2.43;;;1.37;;
840;SDS011;406;48.566;13.450;2023-04-24T15:57:11;2.03;;;1.30;;
840;SDS011;406;48.566;13.450;2023-04-24T15:59:38;2.20;;;1.37;;
840;SDS011;406;48.566;13.450;2023-04-24T16:02:05;2.70;;;1.23;;